Time,TemperatureF,DewpointF,PressureIn,WindDirection,WindDirectionDegrees,WindSpeedMPH,WindSpeedGustMPH,Humidity,HourlyPrecipIn,Conditions,Clouds,dailyrainin,SoftwareType,DateUTC
2013-01-15 00:12:00,72.9,67.1,29.99,East,90,4.7,-999.0,82,-99.99,,,0.00,Acu-Link.com,2013-01-15 05:12:00,
2013-01-15 00:27:00,72.9,66.7,29.99,ESE,112,3.7,-999.0,81,-99.99,,,0.00,Acu-Link.com,2013-01-15 05:27:00,
2013-01-15 00:47:00,73.2,67.0,29.99,East,90,3.7,-999.0,81,-99.99,,,0.00,Acu-Link.com,2013-01-15 05:47:00,
2013-01-15 01:02:00,73.2,67.0,29.99,ESE,112,5.3,-999.0,81,-99.99,,,0.00,Acu-Link.com,2013-01-15 06:02:00,
2013-01-15 04:40:00,71.6,66.8,29.95,ESE,112,2.7,-999.0,85,-99.99,,,0.00,Acu-Link.com,2013-01-15 09:40:00,
2013-01-15 04:55:00,71.6,66.8,29.94,ESE,112,1.7,-999.0,85,-99.99,,,0.00,Acu-Link.com,2013-01-15 09:55:00,
2013-01-15 05:10:00,71.6,67.2,29.94,ESE,112,2.7,-999.0,86,-99.99,,,0.00,Acu-Link.com,2013-01-15 10:10:00,
2013-01-15 05:25:00,71.6,67.2,29.95,East,90,2.2,-999.0,86,-99.99,,,0.00,Acu-Link.com,2013-01-15 10:25:00,
2013-01-15 05:40:00,71.4,67.3,29.94,ESE,112,2.2,-999.0,87,-99.99,,,0.00,Acu-Link.com,2013-01-15 10:40:00,
2013-01-15 05:55:00,71.2,67.5,29.95,East,90,2.7,-999.0,88,-99.99,,,0.00,Acu-Link.com,2013-01-15 10:55:00,
2013-01-15 06:11:00,71.6,67.5,29.95,ESE,112,2.7,-999.0,87,-99.99,,,0.00,Acu-Link.com,2013-01-15 11:11:00,
2013-01-15 06:26:00,71.8,67.0,29.95,ESE,112,3.2,-999.0,85,-99.99,,,0.00,Acu-Link.com,2013-01-15 11:26:00,
2013-01-15 06:41:00,72.0,66.5,29.95,ESE,112,1.7,-999.0,83,-99.99,,,0.00,Acu-Link.com,2013-01-15 11:41:00,
2013-01-15 06:56:00,72.0,66.5,29.95,ESE,112,3.2,-999.0,83,-99.99,,,0.00,Acu-Link.com,2013-01-15 11:56:00,
2013-01-15 07:13:00,72.0,66.5,29.96,ESE,112,2.7,-999.0,83,-99.99,,,0.00,Acu-Link.com,2013-01-15 12:13:00,
2013-01-15 07:29:00,72.3,66.8,29.97,ESE,112,3.2,-999.0,83,-99.99,,,0.00,Acu-Link.com,2013-01-15 12:29:00,
2013-01-15 07:44:00,72.5,66.7,29.97,ESE,112,4.2,-999.0,82,-99.99,,,0.00,Acu-Link.com,2013-01-15 12:44:00,
2013-01-15 07:59:00,73.6,67.0,29.98,ESE,112,4.2,-999.0,80,-99.99,,,0.00,Acu-Link.com,2013-01-15 12:59:00,
2013-01-15 08:14:00,75.7,67.2,29.98,ESE,112,5.3,-999.0,75,-99.99,,,0.00,Acu-Link.com,2013-01-15 13:14:00,
2013-01-15 09:00:00,77.0,67.3,29.99,ESE,112,5.3,-999.0,72,-99.99,,,0.00,Acu-Link.com,2013-01-15 14:00:00,
2013-01-15 10:51:00,79.3,67.4,29.98,East,90,6.8,-999.0,67,-99.99,,,0.00,Acu-Link.com,2013-01-15 15:51:00,
2013-01-15 15:33:00,79.0,67.5,29.93,ESE,112,7.8,-999.0,68,-99.99,,,0.00,Acu-Link.com,2013-01-15 20:33:00,
2013-01-15 15:48:00,78.1,66.2,29.93,ESE,112,11.9,-999.0,67,-99.99,,,0.00,Acu-Link.com,2013-01-15 20:48:00,
2013-01-15 16:04:00,76.5,66.4,29.93,SE,135,8.3,-999.0,71,-99.99,,,0.00,Acu-Link.com,2013-01-15 21:04:00,
2013-01-15 16:19:00,77.2,66.6,29.94,SSE,157,4.2,-999.0,70,-99.99,,,0.00,Acu-Link.com,2013-01-15 21:19:00,
2013-01-15 16:34:00,76.6,66.1,29.94,ESE,112,6.8,-999.0,70,-99.99,,,0.00,Acu-Link.com,2013-01-15 21:34:00,
2013-01-15 16:50:00,76.3,65.8,29.95,SE,135,5.3,-999.0,70,-99.99,,,0.00,Acu-Link.com,2013-01-15 21:50:00,
2013-01-15 17:05:00,75.9,65.8,29.95,SSE,157,2.2,-999.0,71,-99.99,,,0.00,Acu-Link.com,2013-01-15 22:05:00,
2013-01-15 17:20:00,75.6,65.9,29.95,SSE,157,3.7,-999.0,72,-99.99,,,0.00,Acu-Link.com,2013-01-15 22:20:00,
2013-01-15 17:36:00,75.6,65.9,29.96,ESE,112,3.2,-999.0,72,-99.99,,,0.00,Acu-Link.com,2013-01-15 22:36:00,
2013-01-15 17:51:00,74.8,65.2,29.95,ESE,112,6.3,-999.0,72,-99.99,,,0.00,Acu-Link.com,2013-01-15 22:51:00,
2013-01-15 18:06:00,74.3,65.5,29.95,ESE,112,2.7,-999.0,74,-99.99,,,0.00,Acu-Link.com,2013-01-15 23:06:00,
2013-01-15 18:21:00,73.4,65.4,29.96,ESE,112,4.2,-999.0,76,-99.99,,,0.00,Acu-Link.com,2013-01-15 23:21:00,
2013-01-15 18:37:00,72.9,64.9,29.95,ESE,112,3.7,-999.0,76,-99.99,,,0.00,Acu-Link.com,2013-01-15 23:37:00,
2013-01-15 18:52:00,72.7,65.1,29.95,ESE,112,4.2,-999.0,77,-99.99,,,0.00,Acu-Link.com,2013-01-15 23:52:00,
2013-01-15 19:07:00,72.3,64.7,29.94,ESE,112,3.7,-999.0,77,-99.99,,,0.00,Acu-Link.com,2013-01-16 00:07:00,
2013-01-15 19:22:00,72.0,64.8,29.95,ESE,112,4.2,-999.0,78,-99.99,,,0.00,Acu-Link.com,2013-01-16 00:22:00,
2013-01-15 19:37:00,71.8,64.6,29.95,ESE,112,4.2,-999.0,78,-99.99,,,0.00,Acu-Link.com,2013-01-16 00:37:00,
2013-01-15 19:52:00,72.0,64.8,29.94,ESE,112,5.3,-999.0,78,-99.99,,,0.00,Acu-Link.com,2013-01-16 00:52:00,
2013-01-15 20:07:00,71.6,64.7,29.94,ESE,112,3.7,-999.0,79,-99.99,,,0.00,Acu-Link.com,2013-01-16 01:07:00,
2013-01-15 20:22:00,71.1,64.6,29.93,ESE,112,4.2,-999.0,80,-99.99,,,0.00,Acu-Link.com,2013-01-16 01:22:00,
2013-01-15 20:37:00,70.9,64.8,29.93,ESE,112,2.7,-999.0,81,-99.99,,,0.00,Acu-Link.com,2013-01-16 01:37:00,
2013-01-15 20:53:00,70.7,64.9,29.92,ESE,112,3.7,-999.0,82,-99.99,,,0.00,Acu-Link.com,2013-01-16 01:53:00,
2013-01-15 21:08:00,70.3,64.9,29.93,ESE,112,3.2,-999.0,83,-99.99,,,0.00,Acu-Link.com,2013-01-16 02:08:00,
2013-01-15 21:24:00,70.3,65.2,29.92,SE,135,2.7,-999.0,84,-99.99,,,0.00,Acu-Link.com,2013-01-16 02:24:00,
2013-01-15 21:39:00,70.0,65.3,29.92,ESE,112,2.7,-999.0,85,-99.99,,,0.00,Acu-Link.com,2013-01-16 02:39:00,
2013-01-15 21:54:00,69.6,65.2,29.92,ESE,112,2.2,-999.0,86,-99.99,,,0.00,Acu-Link.com,2013-01-16 02:54:00,
2013-01-15 22:09:00,69.1,65.1,29.91,ESE,112,1.7,-999.0,87,-99.99,,,0.00,Acu-Link.com,2013-01-16 03:09:00,
2013-01-15 22:24:00,68.7,65.0,29.91,ESE,112,1.7,-999.0,88,-99.99,,,0.00,Acu-Link.com,2013-01-16 03:24:00,
2013-01-15 22:39:00,68.2,64.8,29.92,ESE,112,0.0,-999.0,89,-99.99,,,0.00,Acu-Link.com,2013-01-16 03:39:00,
2013-01-15 22:54:00,67.6,64.9,29.90,ESE,112,0.0,-999.0,91,-99.99,,,0.00,Acu-Link.com,2013-01-16 03:54:00,
2013-01-15 23:09:00,66.9,64.5,29.90,ESE,112,0.0,-999.0,92,-99.99,,,0.00,Acu-Link.com,2013-01-16 04:09:00,
2013-01-15 23:25:00,66.2,64.4,29.90,ESE,112,0.0,-999.0,94,-99.99,,,0.00,Acu-Link.com,2013-01-16 04:25:00,
2013-01-15 23:40:00,65.5,64.0,29.90,ESE,112,0.0,-999.0,95,-99.99,,,0.00,Acu-Link.com,2013-01-16 04:40:00,
2013-01-15 23:55:00,65.3,65.0,29.91,ESE,112,0.0,-999.0,99,-99.99,,,0.00,Acu-Link.com,2013-01-16 04:55:00,